Hlavní strana
METAR-TAF:

METAR-TAF

Letiště :

Brønnøysund, Norsko

zeměpisná šířka: 65-28N, zeměpisná délka: 012-13E, výška: 0 m

Aktuální stav počasí

Zpráva byla vytvořena před 29 minutami, v 03:20 UTC
Jižní vítr 7 kt
Teplota -3°C
Vlhkost vzduchu 86%
Tlak 993 hPa
Viditelnost 10 km a více
slabé sněhové přeháňky

METAR: ENBN 160320Z AUTO 18007KT 9999NDV -SHSN FEW019/// BKN032/// OVC044/// M03/M05 Q0993

Čas: 04:49 (03:49 UTC)

Předpověď počasí

Zpráva byla vytvořena před 4 hodinami a 49 minutami, v 23:00 UTC
Předpověď platná od 16 v 00 UTC do 16 v 03 UTC
Jihojihovýchodní vítr 8 kt
Viditelnost 10 km a více
Skoro jasno ve výšce 1500 ft
Polojasno ve výšce 4000 ft
Dočasný
od 16 v 00 UTC do 16 v 03 UTC
Viditelnost: 1500 m
ve výšce 700 ft
sněhové přeháňky

TAF: ENBN 152300Z 1600/1603 15008KT 9999 FEW015 SCT040 TEMPO 1600/1603 1500 SHSN VV007

Stav a předpovědi počasí z více než 4 000 letišť (zprávy METAR a TAF).

Červené a žluté tečky na mapě představují dostupné meteorologické stanice.

Když kurzor umístíte na tečku, zobrazí se název stanice.

Pak kliknutím zobrazíte stav a předpověď počasí.

Chcete-li změnit mapu, kliknutím na zelené tlačítko se znaménkem +mapu přiblížíte, kliknutím na zelené tlačítko se znaménkem – mapu oddálíte a kliknutím na zelené šipky přejdete na sousední mapy.


METAR-TAF: